Terminal Aerodrome Forecast
Issued by NWS

Home | Current Version | Previous Version | Text Only | Print | Product List | Glossary On
Versions: 1 2 3 4 5 6 7 8 9 10 11 12 13 14 15 16 17 18 19 20 21 22 23 24 25
521
FTUS41 KBUF 050909 AAA
TAFJHW
TAF AMD
KJHW 050909Z 0509/0606 21010KT P6SM VCSH OVC004
     FM051200 25012KT P6SM SCT007 OVC015
     FM051400 27012G20KT P6SM VCSH BKN025
     FM051800 27012G20KT P6SM BKN040
     FM052200 27008KT P6SM BKN070
     FM060200 VRB03KT P6SM SCT025
      AMD LTD TO CLD VIS AND WIND=

USA.gov is the U.S. government's official web portal to all federal, state and local government web resources and services.